sensor_id;sensor_type;location;lat;lon;timestamp;pressure;altitude;pressure_sealevel;temperature;humidity
36502;BME280;25393;46.108;3.390;2022-08-05T00:01:25;97672.13;;;22.45;87.05
36502;BME280;25393;46.108;3.390;2022-08-05T00:03:54;97673.78;;;22.46;87.95
36502;BME280;25393;46.108;3.390;2022-08-05T00:06:23;97662.03;;;22.35;87.54
36502;BME280;25393;46.108;3.390;2022-08-05T00:08:59;97665.38;;;22.42;87.42
36502;BME280;25393;46.108;3.390;2022-08-05T00:11:27;97664.81;;;22.40;86.82
36502;BME280;25393;46.108;3.390;2022-08-05T00:14:01;97654.47;;;22.32;86.30
36502;BME280;25393;46.108;3.390;2022-08-05T00:16:45;97665.00;;;22.34;86.89
36502;BME280;25393;46.108;3.390;2022-08-05T00:19:23;97644.88;;;22.20;86.59
36502;BME280;25393;46.108;3.390;2022-08-05T00:21:58;97645.13;;;22.18;86.49
36502;BME280;25393;46.108;3.390;2022-08-05T00:24:25;97659.47;;;22.24;88.00
36502;BME280;25393;46.108;3.390;2022-08-05T00:27:00;97673.84;;;22.29;88.15
36502;BME280;25393;46.108;3.390;2022-08-05T00:29:30;97658.91;;;22.22;88.43
36502;BME280;25393;46.108;3.390;2022-08-05T00:32:04;97663.00;;;22.24;86.12
36502;BME280;25393;46.108;3.390;2022-08-05T00:34:40;97643.88;;;22.04;87.33
36502;BME280;25393;46.108;3.390;2022-08-05T00:37:27;97663.81;;;22.03;88.01
36502;BME280;25393;46.108;3.390;2022-08-05T00:40:14;97675.41;;;22.04;87.56
36502;BME280;25393;46.108;3.390;2022-08-05T00:42:53;97654.88;;;21.81;89.06
36502;BME280;25393;46.108;3.390;2022-08-05T00:45:20;97664.16;;;21.52;93.07
36502;BME280;25393;46.108;3.390;2022-08-05T00:48:03;97650.97;;;20.88;99.04
36502;BME280;25393;46.108;3.390;2022-08-05T00:50:31;97639.91;;;20.57;100.00
36502;BME280;25393;46.108;3.390;2022-08-05T00:52:58;97656.63;;;20.30;100.00
36502;BME280;25393;46.108;3.390;2022-08-05T00:55:25;97670.34;;;20.29;100.00
36502;BME280;25393;46.108;3.390;2022-08-05T00:58:12;97664.34;;;20.83;100.00
36502;BME280;25393;46.108;3.390;2022-08-05T01:00:39;97660.75;;;20.61;100.00
36502;BME280;25393;46.108;3.390;2022-08-05T01:03:08;97648.66;;;20.35;100.00
36502;BME280;25393;46.108;3.390;2022-08-05T01:05:48;97642.91;;;20.43;100.00
36502;BME280;25393;46.108;3.390;2022-08-05T01:08:20;97661.97;;;20.70;100.00
36502;BME280;25393;46.108;3.390;2022-08-05T01:11:18;97661.47;;;20.57;100.00
36502;BME280;25393;46.108;3.390;2022-08-05T01:22:28;97687.25;;;20.69;99.26
36502;BME280;25393;46.108;3.390;2022-08-05T01:25:32;97687.22;;;20.81;97.83
36502;BME280;25393;46.108;3.390;2022-08-05T01:28:16;97688.03;;;20.98;96.63
36502;BME280;25393;46.108;3.390;2022-08-05T01:31:00;97688.56;;;21.12;96.68
36502;BME280;25393;46.108;3.390;2022-08-05T01:33:33;97695.22;;;21.21;95.64
36502;BME280;25393;46.108;3.390;2022-08-05T01:36:05;97689.66;;;21.27;92.75
36502;BME280;25393;46.108;3.390;2022-08-05T01:38:47;97677.81;;;21.28;90.65
36502;BME280;25393;46.108;3.390;2022-08-05T01:41:21;97694.03;;;21.50;89.60
36502;BME280;25393;46.108;3.390;2022-08-05T01:43:51;97689.91;;;21.42;90.62
36502;BME280;25393;46.108;3.390;2022-08-05T01:46:20;97697.72;;;21.44;91.00
36502;BME280;25393;46.108;3.390;2022-08-05T01:49:11;97690.63;;;21.55;90.72
36502;BME280;25393;46.108;3.390;2022-08-05T01:51:56;97693.25;;;21.50;90.84
36502;BME280;25393;46.108;3.390;2022-08-05T01:54:30;97701.75;;;21.41;92.96
36502;BME280;25393;46.108;3.390;2022-08-05T01:56:59;97693.56;;;21.36;93.00
36502;BME280;25393;46.108;3.390;2022-08-05T01:59:47;97703.63;;;21.41;91.95
36502;BME280;25393;46.108;3.390;2022-08-05T02:02:16;97716.38;;;21.46;90.88
36502;BME280;25393;46.108;3.390;2022-08-05T02:04:56;97703.19;;;21.32;90.31
36502;BME280;25393;46.108;3.390;2022-08-05T02:07:23;97693.06;;;21.39;88.05
36502;BME280;25393;46.108;3.390;2022-08-05T02:09:55;97710.38;;;21.43;88.97
36502;BME280;25393;46.108;3.390;2022-08-05T02:15:07;97703.28;;;21.21;89.64
36502;BME280;25393;46.108;3.390;2022-08-05T02:17:44;97715.78;;;21.27;90.54
36502;BME280;25393;46.108;3.390;2022-08-05T02:20:42;97707.94;;;21.25;90.42
36502;BME280;25393;46.108;3.390;2022-08-05T02:23:13;97708.25;;;21.12;89.69
36502;BME280;25393;46.108;3.390;2022-08-05T02:25:42;97703.81;;;21.06;89.62
36502;BME280;25393;46.108;3.390;2022-08-05T02:28:19;97696.91;;;21.10;89.90
36502;BME280;25393;46.108;3.390;2022-08-05T02:30:59;97715.88;;;21.32;90.33
36502;BME280;25393;46.108;3.390;2022-08-05T02:33:26;97713.03;;;21.38;91.04
36502;BME280;25393;46.108;3.390;2022-08-05T02:36:06;97724.28;;;21.52;90.72
36502;BME280;25393;46.108;3.390;2022-08-05T02:38:40;97702.44;;;21.54;90.88
36502;BME280;25393;46.108;3.390;2022-08-05T02:41:20;97707.13;;;21.58;89.56
36502;BME280;25393;46.108;3.390;2022-08-05T02:43:49;97696.69;;;21.45;89.01
36502;BME280;25393;46.108;3.390;2022-08-05T02:46:39;97709.25;;;21.39;89.55
36502;BME280;25393;46.108;3.390;2022-08-05T02:49:29;97725.03;;;21.31;90.30
36502;BME280;25393;46.108;3.390;2022-08-05T02:52:05;97734.09;;;21.25;92.42
36502;BME280;25393;46.108;3.390;2022-08-05T02:54:35;97744.38;;;21.28;92.70
36502;BME280;25393;46.108;3.390;2022-08-05T02:57:12;97751.81;;;21.37;92.89
36502;BME280;25393;46.108;3.390;2022-08-05T02:59:59;97732.84;;;21.32;91.56
36502;BME280;25393;46.108;3.390;2022-08-05T03:02:35;97727.72;;;21.31;91.69
36502;BME280;25393;46.108;3.390;2022-08-05T03:05:03;97729.69;;;21.35;91.85
36502;BME280;25393;46.108;3.390;2022-08-05T03:07:30;97738.16;;;21.44;92.07
36502;BME280;25393;46.108;3.390;2022-08-05T03:10:17;97736.84;;;21.47;91.42
36502;BME280;25393;46.108;3.390;2022-08-05T03:12:50;97718.81;;;21.30;91.72
36502;BME280;25393;46.108;3.390;2022-08-05T03:15:20;97727.94;;;21.29;91.73
36502;BME280;25393;46.108;3.390;2022-08-05T03:17:55;97751.31;;;21.40;92.36
36502;BME280;25393;46.108;3.390;2022-08-05T03:20:23;97730.47;;;21.36;92.24
36502;BME280;25393;46.108;3.390;2022-08-05T03:22:51;97743.22;;;21.40;92.34
36502;BME280;25393;46.108;3.390;2022-08-05T03:25:26;97704.34;;;21.20;92.30
36502;BME280;25393;46.108;3.390;2022-08-05T03:28:14;97738.16;;;21.44;93.01
36502;BME280;25393;46.108;3.390;2022-08-05T03:30:46;97742.19;;;21.41;92.76
36502;BME280;25393;46.108;3.390;2022-08-05T03:33:15;97737.34;;;21.43;92.54
36502;BME280;25393;46.108;3.390;2022-08-05T03:35:44;97749.78;;;21.45;92.86
36502;BME280;25393;46.108;3.390;2022-08-05T03:38:12;97730.16;;;21.32;93.91
36502;BME280;25393;46.108;3.390;2022-08-05T03:40:44;97740.88;;;21.44;95.02
36502;BME280;25393;46.108;3.390;2022-08-05T03:43:15;97729.25;;;21.43;95.54
36502;BME280;25393;46.108;3.390;2022-08-05T03:46:03;97733.59;;;21.45;95.13
36502;BME280;25393;46.108;3.390;2022-08-05T03:48:30;97734.09;;;21.41;94.67
36502;BME280;25393;46.108;3.390;2022-08-05T03:51:19;97739.97;;;21.38;94.16
36502;BME280;25393;46.108;3.390;2022-08-05T03:54:39;97732.63;;;21.34;93.59
36502;BME280;25393;46.108;3.390;2022-08-05T03:57:30;97730.97;;;21.33;93.13
36502;BME280;25393;46.108;3.390;2022-08-05T04:00:10;97721.81;;;21.17;92.99
36502;BME280;25393;46.108;3.390;2022-08-05T04:02:44;97726.22;;;21.23;94.01
36502;BME280;25393;46.108;3.390;2022-08-05T04:05:32;97739.81;;;21.28;93.59
36502;BME280;25393;46.108;3.390;2022-08-05T04:08:06;97749.94;;;21.21;94.06
36502;BME280;25393;46.108;3.390;2022-08-05T04:10:56;97730.97;;;21.16;94.40
36502;BME280;25393;46.108;3.390;2022-08-05T04:13:24;97726.06;;;21.13;94.24
36502;BME280;25393;46.108;3.390;2022-08-05T04:16:14;97740.44;;;21.19;94.99
36502;BME280;25393;46.108;3.390;2022-08-05T04:18:50;97741.03;;;21.21;95.65
36502;BME280;25393;46.108;3.390;2022-08-05T04:21:19;97738.16;;;21.27;96.08
36502;BME280;25393;46.108;3.390;2022-08-05T04:24:06;97750.59;;;21.28;95.88
36502;BME280;25393;46.108;3.390;2022-08-05T04:26:40;97750.50;;;21.23;95.92
36502;BME280;25393;46.108;3.390;2022-08-05T04:29:07;97757.84;;;21.28;96.64
36502;BME280;25393;46.108;3.390;2022-08-05T04:31:34;97764.41;;;21.32;96.96
36502;BME280;25393;46.108;3.390;2022-08-05T04:34:04;97760.72;;;21.38;96.84
36502;BME280;25393;46.108;3.390;2022-08-05T04:36:51;97752.63;;;21.38;96.89
36502;BME280;25393;46.108;3.390;2022-08-05T04:39:18;97768.75;;;21.50;97.39
36502;BME280;25393;46.108;3.390;2022-08-05T04:41:46;97770.84;;;21.48;97.18
36502;BME280;25393;46.108;3.390;2022-08-05T04:44:14;97774.84;;;21.45;97.24
36502;BME280;25393;46.108;3.390;2022-08-05T04:46:46;97777.38;;;21.52;97.68
36502;BME280;25393;46.108;3.390;2022-08-05T04:49:14;97777.72;;;21.55;97.92
36502;BME280;25393;46.108;3.390;2022-08-05T04:51:43;97787.28;;;21.63;97.10
36502;BME280;25393;46.108;3.390;2022-08-05T04:54:11;97770.78;;;21.42;97.23
36502;BME280;25393;46.108;3.390;2022-08-05T04:56:46;97788.50;;;21.38;97.74
36502;BME280;25393;46.108;3.390;2022-08-05T04:59:14;97765.75;;;21.18;98.26
36502;BME280;25393;46.108;3.390;2022-08-05T05:01:59;97784.47;;;21.24;99.31
36502;BME280;25393;46.108;3.390;2022-08-05T05:04:34;97791.44;;;21.54;100.00
36502;BME280;25393;46.108;3.390;2022-08-05T05:07:03;97786.06;;;21.70;100.00
36502;BME280;25393;46.108;3.390;2022-08-05T05:09:35;97758.09;;;21.76;100.00
36502;BME280;25393;46.108;3.390;2022-08-05T05:12:04;97781.25;;;22.27;97.51
36502;BME280;25393;46.108;3.390;2022-08-05T05:14:37;97787.81;;;22.53;92.97
36502;BME280;25393;46.108;3.390;2022-08-05T05:17:16;97801.06;;;22.76;91.00
36502;BME280;25393;46.108;3.390;2022-08-05T05:19:57;97807.06;;;23.00;88.99
36502;BME280;25393;46.108;3.390;2022-08-05T05:22:46;97778.50;;;23.09;86.55
36502;BME280;25393;46.108;3.390;2022-08-05T05:25:14;97812.66;;;23.42;85.48
36502;BME280;25393;46.108;3.390;2022-08-05T05:27:43;97811.16;;;23.56;83.96
36502;BME280;25393;46.108;3.390;2022-08-05T05:30:19;97824.41;;;23.58;83.35
36502;BME280;25393;46.108;3.390;2022-08-05T05:33:00;97828.28;;;23.67;83.54
36502;BME280;25393;46.108;3.390;2022-08-05T05:35:41;97816.06;;;23.96;81.46
36502;BME280;25393;46.108;3.390;2022-08-05T05:38:08;97819.38;;;24.03;80.90
36502;BME280;25393;46.108;3.390;2022-08-05T05:40:40;97827.47;;;24.03;80.98
36502;BME280;25393;46.108;3.390;2022-08-05T05:43:18;97825.50;;;24.25;79.30
36502;BME280;25393;46.108;3.390;2022-08-05T05:46:05;97822.38;;;24.44;77.24
36502;BME280;25393;46.108;3.390;2022-08-05T05:48:40;97818.25;;;24.36;77.67
36502;BME280;25393;46.108;3.390;2022-08-05T05:51:09;97818.31;;;24.46;78.08
36502;BME280;25393;46.108;3.390;2022-08-05T05:53:42;97831.84;;;24.46;77.65
36502;BME280;25393;46.108;3.390;2022-08-05T05:56:20;97835.66;;;24.45;77.66
36502;BME280;25393;46.108;3.390;2022-08-05T05:58:57;97847.97;;;24.63;77.09
36502;BME280;25393;46.108;3.390;2022-08-05T06:01:29;97852.81;;;24.61;78.02
36502;BME280;25393;46.108;3.390;2022-08-05T06:04:05;97844.09;;;24.49;77.68
36502;BME280;25393;46.108;3.390;2022-08-05T06:06:33;97857.88;;;24.47;78.18
36502;BME280;25393;46.108;3.390;2022-08-05T06:09:02;97859.22;;;24.45;78.05
36502;BME280;25393;46.108;3.390;2022-08-05T06:11:30;97874.84;;;24.32;80.28
36502;BME280;25393;46.108;3.390;2022-08-05T06:13:58;97879.72;;;24.30;80.83
36502;BME280;25393;46.108;3.390;2022-08-05T06:16:26;97872.72;;;24.34;81.14
36502;BME280;25393;46.108;3.390;2022-08-05T06:19:03;97877.66;;;24.48;78.87
36502;BME280;25393;46.108;3.390;2022-08-05T06:21:34;97889.59;;;24.52;79.97
36502;BME280;25393;46.108;3.390;2022-08-05T06:24:06;97883.91;;;24.48;79.92
36502;BME280;25393;46.108;3.390;2022-08-05T06:26:41;97889.09;;;24.60;80.02
36502;BME280;25393;46.108;3.390;2022-08-05T06:29:18;97878.88;;;24.72;79.05
36502;BME280;25393;46.108;3.390;2022-08-05T06:32:05;97886.53;;;24.80;78.31
36502;BME280;25393;46.108;3.390;2022-08-05T06:34:50;97887.38;;;24.85;78.11
36502;BME280;25393;46.108;3.390;2022-08-05T06:37:21;97892.88;;;25.01;76.96
36502;BME280;25393;46.108;3.390;2022-08-05T06:40:09;97891.53;;;25.03;77.62
36502;BME280;25393;46.108;3.390;2022-08-05T06:42:37;97898.59;;;25.04;77.15
36502;BME280;25393;46.108;3.390;2022-08-05T06:45:06;97899.94;;;25.07;77.57
36502;BME280;25393;46.108;3.390;2022-08-05T06:47:34;97899.44;;;25.15;77.56
36502;BME280;25393;46.108;3.390;2022-08-05T06:50:21;97901.63;;;25.23;76.78
36502;BME280;25393;46.108;3.390;2022-08-05T06:52:48;97905.22;;;25.39;76.15
36502;BME280;25393;46.108;3.390;2022-08-05T06:55:35;97912.63;;;25.58;75.65
36502;BME280;25393;46.108;3.390;2022-08-05T06:58:08;97910.78;;;25.84;74.64
36502;BME280;25393;46.108;3.390;2022-08-05T07:00:45;97897.78;;;26.06;71.76
36502;BME280;25393;46.108;3.390;2022-08-05T07:03:15;97917.88;;;26.30;72.15
36502;BME280;25393;46.108;3.390;2022-08-05T07:05:42;97908.34;;;26.43;71.20
36502;BME280;25393;46.108;3.390;2022-08-05T07:08:11;97915.13;;;26.61;69.15
36502;BME280;25393;46.108;3.390;2022-08-05T07:10:38;97915.66;;;26.68;67.36
36502;BME280;25393;46.108;3.390;2022-08-05T07:13:22;97917.81;;;26.71;68.49
36502;BME280;25393;46.108;3.390;2022-08-05T07:16:28;97911.88;;;26.69;68.47
36502;BME280;25393;46.108;3.390;2022-08-05T07:19:34;97931.97;;;26.88;68.59
36502;BME280;25393;46.108;3.390;2022-08-05T07:22:21;97915.38;;;26.74;66.87
36502;BME280;25393;46.108;3.390;2022-08-05T07:25:00;97920.81;;;26.79;68.10
36502;BME280;25393;46.108;3.390;2022-08-05T07:27:49;97923.53;;;26.95;67.31
36502;BME280;25393;46.108;3.390;2022-08-05T07:30:27;97904.69;;;27.13;66.54
36502;BME280;25393;46.108;3.390;2022-08-05T07:32:58;97924.97;;;27.46;65.95
36502;BME280;25393;46.108;3.390;2022-08-05T07:35:25;97924.34;;;27.64;64.69
36502;BME280;25393;46.108;3.390;2022-08-05T07:38:13;97921.53;;;27.79;64.09
36502;BME280;25393;46.108;3.390;2022-08-05T07:41:00;97939.06;;;28.07;63.85
36502;BME280;25393;46.108;3.390;2022-08-05T07:43:47;97938.56;;;28.34;63.28
36502;BME280;25393;46.108;3.390;2022-08-05T07:46:13;97918.16;;;28.32;63.08
36502;BME280;25393;46.108;3.390;2022-08-05T07:48:50;97947.00;;;28.38;63.17
36502;BME280;25393;46.108;3.390;2022-08-05T07:51:31;97945.53;;;28.16;62.95
36502;BME280;25393;46.108;3.390;2022-08-05T07:54:04;97937.97;;;28.42;62.35
36502;BME280;25393;46.108;3.390;2022-08-05T07:56:30;97932.41;;;28.52;61.70
36502;BME280;25393;46.108;3.390;2022-08-05T07:59:17;97950.84;;;28.94;59.85
36502;BME280;25393;46.108;3.390;2022-08-05T08:01:48;97949.53;;;29.15;58.07
36502;BME280;25393;46.108;3.390;2022-08-05T08:04:23;97957.72;;;29.39;57.66
36502;BME280;25393;46.108;3.390;2022-08-05T08:07:04;97967.72;;;29.67;58.06
36502;BME280;25393;46.108;3.390;2022-08-05T08:09:33;97961.31;;;29.77;57.17
36502;BME280;25393;46.108;3.390;2022-08-05T08:12:00;97960.94;;;29.65;57.33
36502;BME280;25393;46.108;3.390;2022-08-05T08:14:43;97970.41;;;29.30;57.67
36502;BME280;25393;46.108;3.390;2022-08-05T08:17:12;97975.84;;;29.30;58.34
36502;BME280;25393;46.108;3.390;2022-08-05T08:19:42;97982.31;;;29.10;57.93
36502;BME280;25393;46.108;3.390;2022-08-05T08:22:29;97971.31;;;28.63;58.81
36502;BME280;25393;46.108;3.390;2022-08-05T08:24:58;97963.66;;;28.31;60.64
36502;BME280;25393;46.108;3.390;2022-08-05T08:27:29;97983.72;;;28.45;60.86
36502;BME280;25393;46.108;3.390;2022-08-05T08:30:11;97979.50;;;28.58;61.37
36502;BME280;25393;46.108;3.390;2022-08-05T08:33:09;97980.63;;;28.91;58.61
36502;BME280;25393;46.108;3.390;2022-08-05T08:35:39;97980.19;;;29.31;58.75
36502;BME280;25393;46.108;3.390;2022-08-05T08:38:07;97971.41;;;29.58;56.98
36502;BME280;25393;46.108;3.390;2022-08-05T08:40:42;97980.16;;;29.79;56.76
36502;BME280;25393;46.108;3.390;2022-08-05T08:43:18;97995.50;;;29.74;56.17
36502;BME280;25393;46.108;3.390;2022-08-05T08:46:05;97977.50;;;29.02;57.60
36502;BME280;25393;46.108;3.390;2022-08-05T08:48:41;97988.53;;;28.92;58.57
36502;BME280;25393;46.108;3.390;2022-08-05T08:51:32;97994.97;;;28.72;59.57
36502;BME280;25393;46.108;3.390;2022-08-05T08:54:19;97983.19;;;28.77;58.82
36502;BME280;25393;46.108;3.390;2022-08-05T08:56:52;97974.03;;;28.63;59.85
36502;BME280;25393;46.108;3.390;2022-08-05T08:59:22;97989.66;;;28.52;59.88
36502;BME280;25393;46.108;3.390;2022-08-05T09:01:59;97998.31;;;28.93;59.93
36502;BME280;25393;46.108;3.390;2022-08-05T09:04:26;97988.69;;;29.24;58.41
36502;BME280;25393;46.108;3.390;2022-08-05T09:06:56;97998.38;;;29.41;57.91
36502;BME280;25393;46.108;3.390;2022-08-05T09:09:24;97992.03;;;29.69;57.59
36502;BME280;25393;46.108;3.390;2022-08-05T09:12:04;98004.38;;;29.85;55.63
36502;BME280;25393;46.108;3.390;2022-08-05T09:14:46;97983.16;;;30.01;55.32
36502;BME280;25393;46.108;3.390;2022-08-05T09:17:30;98001.72;;;30.55;54.42
36502;BME280;25393;46.108;3.390;2022-08-05T09:20:09;97985.25;;;30.92;52.16
36502;BME280;25393;46.108;3.390;2022-08-05T09:23:09;98001.72;;;31.19;51.03
36502;BME280;25393;46.108;3.390;2022-08-05T09:25:48;98010.75;;;31.47;49.48
36502;BME280;25393;46.108;3.390;2022-08-05T09:28:33;97994.63;;;31.87;49.79
36502;BME280;25393;46.108;3.390;2022-08-05T09:31:09;98006.59;;;32.27;49.33
36502;BME280;25393;46.108;3.390;2022-08-05T09:34:04;98012.00;;;31.68;48.64
36502;BME280;25393;46.108;3.390;2022-08-05T09:36:47;98009.50;;;30.48;51.55
36502;BME280;25393;46.108;3.390;2022-08-05T09:39:22;98017.91;;;30.51;53.15
36502;BME280;25393;46.108;3.390;2022-08-05T09:42:07;97998.44;;;31.04;50.91
36502;BME280;25393;46.108;3.390;2022-08-05T09:44:49;98006.28;;;31.79;49.77
36502;BME280;25393;46.108;3.390;2022-08-05T09:47:22;97999.03;;;32.46;47.90
36502;BME280;25393;46.108;3.390;2022-08-05T09:49:49;98010.38;;;32.53;47.61
36502;BME280;25393;46.108;3.390;2022-08-05T09:52:33;98012.94;;;32.94;47.50
36502;BME280;25393;46.108;3.390;2022-08-05T09:55:10;97999.38;;;32.97;45.46
36502;BME280;25393;46.108;3.390;2022-08-05T09:57:58;97990.03;;;32.98;45.55
36502;BME280;25393;46.108;3.390;2022-08-05T10:00:26;98016.09;;;33.40;45.58
36502;BME280;25393;46.108;3.390;2022-08-05T10:02:56;98010.75;;;33.75;44.59
36502;BME280;25393;46.108;3.390;2022-08-05T10:05:26;98019.66;;;33.41;44.44
36502;BME280;25393;46.108;3.390;2022-08-05T10:08:00;98011.38;;;33.32;45.27
36502;BME280;25393;46.108;3.390;2022-08-05T10:10:48;98006.56;;;33.38;45.51
36502;BME280;25393;46.108;3.390;2022-08-05T10:13:36;98014.38;;;33.53;44.34
36502;BME280;25393;46.108;3.390;2022-08-05T10:16:34;98017.13;;;32.91;44.83
36502;BME280;25393;46.108;3.390;2022-08-05T10:19:08;98021.31;;;32.31;46.95
36502;BME280;25393;46.108;3.390;2022-08-05T10:21:37;98010.22;;;31.18;48.55
36502;BME280;25393;46.108;3.390;2022-08-05T10:24:07;98021.47;;;30.84;50.91
36502;BME280;25393;46.108;3.390;2022-08-05T10:26:40;98034.75;;;30.58;51.03
36502;BME280;25393;46.108;3.390;2022-08-05T10:29:18;98035.06;;;30.01;52.28
36502;BME280;25393;46.108;3.390;2022-08-05T10:32:05;98020.72;;;30.28;52.36
36502;BME280;25393;46.108;3.390;2022-08-05T10:34:52;98031.13;;;30.63;50.90
36502;BME280;25393;46.108;3.390;2022-08-05T10:37:26;98029.88;;;30.55;50.97
36502;BME280;25393;46.108;3.390;2022-08-05T10:42:58;98023.38;;;29.95;52.39
36502;BME280;25393;46.108;3.390;2022-08-05T10:45:27;98039.50;;;29.73;52.99
36502;BME280;25393;46.108;3.390;2022-08-05T10:49:09;98038.44;;;29.93;52.69
36502;BME280;25393;46.108;3.390;2022-08-05T10:51:24;98031.69;;;29.85;52.38
36502;BME280;25393;46.108;3.390;2022-08-05T10:53:59;98036.34;;;29.85;52.85
36502;BME280;25393;46.108;3.390;2022-08-05T10:56:43;98038.22;;;29.89;52.78
36502;BME280;25393;46.108;3.390;2022-08-05T10:59:15;98033.34;;;29.81;52.80
36502;BME280;25393;46.108;3.390;2022-08-05T11:02:10;98033.00;;;30.11;52.61
36502;BME280;25393;46.108;3.390;2022-08-05T11:04:58;98015.41;;;30.55;52.20
36502;BME280;25393;46.108;3.390;2022-08-05T11:07:25;98025.31;;;31.02;50.36
36502;BME280;25393;46.108;3.390;2022-08-05T11:10:21;98028.88;;;31.16;49.25
36502;BME280;25393;46.108;3.390;2022-08-05T11:12:53;98037.16;;;30.97;48.87
36502;BME280;25393;46.108;3.390;2022-08-05T11:15:31;98037.00;;;30.89;49.85
36502;BME280;25393;46.108;3.390;2022-08-05T11:18:29;98025.81;;;31.17;48.65
36502;BME280;25393;46.108;3.390;2022-08-05T11:21:00;98036.69;;;31.23;49.04
36502;BME280;25393;46.108;3.390;2022-08-05T11:23:51;98038.41;;;31.18;49.19
36502;BME280;25393;46.108;3.390;2022-08-05T11:26:39;98035.34;;;31.52;48.73
36502;BME280;25393;46.108;3.390;2022-08-05T11:29:38;98030.94;;;31.92;47.45
36502;BME280;25393;46.108;3.390;2022-08-05T11:32:28;98026.34;;;32.51;46.67
36502;BME280;25393;46.108;3.390;2022-08-05T11:34:55;98034.06;;;32.49;46.06
36502;BME280;25393;46.108;3.390;2022-08-05T11:37:43;98034.66;;;32.59;44.78
36502;BME280;25393;46.108;3.390;2022-08-05T11:41:03;98032.09;;;32.85;44.76
36502;BME280;25393;46.108;3.390;2022-08-05T11:44:02;98028.28;;;32.73;45.30
36502;BME280;25393;46.108;3.390;2022-08-05T11:47:02;98023.97;;;32.58;45.69
36502;BME280;25393;46.108;3.390;2022-08-05T11:49:42;98018.81;;;32.21;46.00
36502;BME280;25393;46.108;3.390;2022-08-05T11:52:27;98034.53;;;32.29;46.75
36502;BME280;25393;46.108;3.390;2022-08-05T11:54:56;98023.38;;;32.61;46.31
36502;BME280;25393;46.108;3.390;2022-08-05T11:57:28;98032.03;;;32.99;46.03
36502;BME280;25393;46.108;3.390;2022-08-05T11:59:56;98031.59;;;33.36;44.59
36502;BME280;25393;46.108;3.390;2022-08-05T12:02:29;98022.63;;;33.61;43.67
36502;BME280;25393;46.108;3.390;2022-08-05T12:05:02;98033.03;;;33.64;43.68
36502;BME280;25393;46.108;3.390;2022-08-05T12:07:43;98028.84;;;33.76;43.36
36502;BME280;25393;46.108;3.390;2022-08-05T12:10:31;98005.16;;;33.49;42.34
36502;BME280;25393;46.108;3.390;2022-08-05T12:13:11;98024.50;;;32.82;43.69
36502;BME280;25393;46.108;3.390;2022-08-05T12:15:46;98019.50;;;32.62;44.34
36502;BME280;25393;46.108;3.390;2022-08-05T12:18:26;98024.25;;;32.34;44.98
36502;BME280;25393;46.108;3.390;2022-08-05T12:21:09;98022.69;;;32.42;45.83
36502;BME280;25393;46.108;3.390;2022-08-05T12:23:37;98012.59;;;32.29;45.56
36502;BME280;25393;46.108;3.390;2022-08-05T12:26:08;98018.75;;;32.12;45.63
36502;BME280;25393;46.108;3.390;2022-08-05T12:28:36;98014.44;;;32.19;45.95
36502;BME280;25393;46.108;3.390;2022-08-05T12:31:03;98023.13;;;32.35;45.22
36502;BME280;25393;46.108;3.390;2022-08-05T12:33:31;98015.81;;;32.66;44.75
36502;BME280;25393;46.108;3.390;2022-08-05T12:36:05;98012.00;;;32.76;44.68
36502;BME280;25393;46.108;3.390;2022-08-05T12:38:38;98011.44;;;32.65;44.04
36502;BME280;25393;46.108;3.390;2022-08-05T12:41:13;98012.72;;;32.59;44.60
36502;BME280;25393;46.108;3.390;2022-08-05T12:43:59;98021.81;;;33.22;44.40
36502;BME280;25393;46.108;3.390;2022-08-05T12:46:29;98012.28;;;34.24;41.91
36502;BME280;25393;46.108;3.390;2022-08-05T12:48:57;98015.22;;;34.79;40.78
36502;BME280;25393;46.108;3.390;2022-08-05T12:51:25;98022.00;;;34.90;40.54
36502;BME280;25393;46.108;3.390;2022-08-05T12:54:20;98018.47;;;34.55;40.71
36502;BME280;25393;46.108;3.390;2022-08-05T12:57:03;98016.50;;;34.13;41.62
36502;BME280;25393;46.108;3.390;2022-08-05T12:59:50;98016.47;;;33.95;41.45
36502;BME280;25393;46.108;3.390;2022-08-05T13:02:37;98002.91;;;34.25;42.08
36502;BME280;25393;46.108;3.390;2022-08-05T13:05:07;98013.13;;;34.58;40.47
36502;BME280;25393;46.108;3.390;2022-08-05T13:07:41;98009.50;;;35.01;40.39
36502;BME280;25393;46.108;3.390;2022-08-05T13:10:26;98006.16;;;35.42;39.33
36502;BME280;25393;46.108;3.390;2022-08-05T13:12:56;97990.41;;;35.80;37.74
36502;BME280;25393;46.108;3.390;2022-08-05T13:15:30;98008.19;;;35.16;38.72
36502;BME280;25393;46.108;3.390;2022-08-05T13:18:19;98014.41;;;34.87;39.71
36502;BME280;25393;46.108;3.390;2022-08-05T13:20:47;98005.44;;;35.53;39.08
36502;BME280;25393;46.108;3.390;2022-08-05T13:23:16;97997.38;;;36.28;37.51
36502;BME280;25393;46.108;3.390;2022-08-05T13:25:48;97993.47;;;36.70;37.13
36502;BME280;25393;46.108;3.390;2022-08-05T13:28:27;97994.41;;;36.74;37.44
36502;BME280;25393;46.108;3.390;2022-08-05T13:30:58;97990.06;;;36.85;36.58
36502;BME280;25393;46.108;3.390;2022-08-05T13:33:28;97983.53;;;36.90;36.05
36502;BME280;25393;46.108;3.390;2022-08-05T13:36:15;97997.53;;;36.85;36.63
36502;BME280;25393;46.108;3.390;2022-08-05T13:38:42;97984.06;;;36.30;36.28
36502;BME280;25393;46.108;3.390;2022-08-05T13:41:09;97991.34;;;36.55;37.42
36502;BME280;25393;46.108;3.390;2022-08-05T13:43:37;97978.50;;;36.59;37.29
36502;BME280;25393;46.108;3.390;2022-08-05T13:46:22;97978.13;;;36.61;37.09
36502;BME280;25393;46.108;3.390;2022-08-05T13:49:09;97977.75;;;36.29;36.86
36502;BME280;25393;46.108;3.390;2022-08-05T13:51:37;97989.25;;;36.52;37.24
36502;BME280;25393;46.108;3.390;2022-08-05T13:54:10;97993.59;;;36.53;36.73
36502;BME280;25393;46.108;3.390;2022-08-05T13:56:40;97992.44;;;36.75;36.44
36502;BME280;25393;46.108;3.390;2022-08-05T13:59:18;97997.47;;;35.90;37.44
36502;BME280;25393;46.108;3.390;2022-08-05T14:01:50;97994.34;;;35.33;38.20
36502;BME280;25393;46.108;3.390;2022-08-05T14:04:27;97981.06;;;35.35;38.84
36502;BME280;25393;46.108;3.390;2022-08-05T14:07:21;97990.59;;;35.37;38.11